Time;durP1;ratioP1;P1;durP2;ratioP2;P2;SDS_P1;SDS_P2;PMS_P1;PMS_P2;Temp;Humidity;BMP_temperature;BMP_pressure;BME280_temperature;BME280_humidity;BME280_pressure;Samples;Min_cycle;Max_cycle;Signal;HPM_P1;HPM_P2
2022/10/12 00:00:22;;;;;;;14.70;11.30;;;14.80;89.20;;;;;;5095565;27;20194;-61
2022/10/12 00:02:47;;;;;;;17.67;11.00;;;14.80;89.20;;;;;;5116189;28;20196;-60
2022/10/12 00:05:13;;;;;;;18.13;10.70;;;14.80;89.20;;;;;;5098396;28;20225;-60
2022/10/12 00:07:39;;;;;;;14.43;10.50;;;14.80;89.20;;;;;;5096270;28;20193;-60
2022/10/12 00:10:04;;;;;;;14.30;10.50;;;14.80;89.20;;;;;;5107229;28;20228;-62
2022/10/12 00:12:30;;;;;;;16.50;11.30;;;14.80;89.40;;;;;;5098354;28;20205;-61
2022/10/12 00:14:56;;;;;;;13.70;10.90;;;14.80;89.40;;;;;;5082909;28;20270;-62
2022/10/12 00:17:22;;;;;;;13.77;11.37;;;14.80;89.40;;;;;;5110293;27;20196;-61
2022/10/12 00:19:49;;;;;;;18.63;10.87;;;14.80;89.30;;;;;;5090139;28;20198;-61
2022/10/12 00:22:15;;;;;;;16.17;10.77;;;14.80;89.20;;;;;;5105547;28;20224;-61
2022/10/12 00:24:40;;;;;;;13.67;10.77;;;14.80;89.20;;;;;;5114385;28;20229;-62
2022/10/12 00:27:06;;;;;;;16.50;10.43;;;14.80;89.20;;;;;;5097419;28;20212;-62
2022/10/12 00:29:32;;;;;;;20.37;10.63;;;14.80;89.20;;;;;;5105568;28;20273;-61
2022/10/12 00:31:57;;;;;;;22.27;10.87;;;14.80;89.10;;;;;;5106365;28;20199;-62
2022/10/12 00:34:23;;;;;;;15.80;10.47;;;14.80;89.10;;;;;;5110392;27;20277;-62
2022/10/12 00:36:49;;;;;;;14.97;10.33;;;14.80;89.20;;;;;;5098461;28;20193;-61
2022/10/12 00:39:14;;;;;;;13.90;11.23;;;14.80;89.40;;;;;;5081201;28;20236;-61
2022/10/12 00:41:42;;;;;;;13.67;10.23;;;14.80;89.20;;;;;;5079643;28;20220;-61
2022/10/12 00:44:46;;;;;;;15.00;10.43;;;14.80;89.30;;;;;;5107639;28;20193;-62
2022/10/12 00:47:31;;;;;;;13.10;11.23;;;14.80;89.20;;;;;;5107883;28;20279;-61
2022/10/12 00:50:13;;;;;;;15.00;10.93;;;14.80;89.20;;;;;;5103633;28;20189;-61
2022/10/12 00:53:02;;;;;;;12.10;10.80;;;14.80;89.30;;;;;;5101696;28;20206;-61
2022/10/12 00:55:32;;;;;;;18.03;11.17;;;14.70;89.10;;;;;;5115532;28;20183;-61
2022/10/12 00:57:58;;;;;;;12.57;10.50;;;14.70;89.50;;;;;;5112495;28;20192;-61
2022/10/12 01:00:24;;;;;;;17.10;10.97;;;14.70;89.50;;;;;;5108499;28;20192;-61
2022/10/12 01:02:53;;;;;;;15.70;10.80;;;14.80;89.60;;;;;;5103443;28;20272;-61
2022/10/12 01:05:19;;;;;;;13.93;10.53;;;14.70;89.40;;;;;;5109924;28;20185;-61
2022/10/12 01:07:45;;;;;;;14.43;10.43;;;14.70;89.40;;;;;;5105449;28;20192;-62
2022/10/12 01:10:11;;;;;;;25.43;11.30;;;14.70;89.40;;;;;;5113865;28;20256;-60
2022/10/12 01:12:41;;;;;;;19.60;11.13;;;14.70;89.30;;;;;;5115027;28;20217;-61
2022/10/12 01:15:08;;;;;;;14.80;10.50;;;14.70;89.30;;;;;;5115519;28;20260;-61
2022/10/12 01:17:58;;;;;;;19.07;10.87;;;14.70;89.30;;;;;;5116449;27;20181;-61
2022/10/12 01:21:03;;;;;;;14.20;10.63;;;14.70;89.30;;;;;;5097119;28;20197;-62
2022/10/12 01:23:47;;;;;;;16.83;10.33;;;14.70;89.40;;;;;;5110705;28;20188;-61
2022/10/12 01:26:28;;;;;;;14.23;10.47;;;14.70;89.30;;;;;;5107175;28;20189;-61
2022/10/12 01:28:53;;;;;;;16.77;10.63;;;14.70;89.30;;;;;;5103806;28;20189;-61
2022/10/12 01:31:36;;;;;;;16.50;11.40;;;14.70;89.20;;;;;;5114195;28;20192;-62
2022/10/12 01:34:41;;;;;;;13.80;10.77;;;14.60;89.30;;;;;;5104767;28;20217;-61
2022/10/12 01:37:27;;;;;;;13.90;10.70;;;14.60;89.30;;;;;;5085002;28;20190;-61
2022/10/12 01:39:55;;;;;;;14.03;10.53;;;14.60;89.20;;;;;;5108967;28;20232;-61
2022/10/12 01:42:30;;;;;;;16.67;10.97;;;14.60;89.20;;;;;;5088865;28;20193;-61
2022/10/12 01:45:05;;;;;;;12.77;10.53;;;14.50;89.10;;;;;;5111777;28;20238;-61
2022/10/12 01:47:32;;;;;;;14.57;10.10;;;14.50;89.20;;;;;;5113835;28;20192;-61
2022/10/12 01:49:59;;;;;;;14.37;10.63;;;14.60;89.30;;;;;;5097126;28;20202;-61
2022/10/12 01:52:30;;;;;;;18.53;10.13;;;14.50;89.10;;;;;;5096171;28;20189;-61
2022/10/12 01:55:09;;;;;;;15.10;9.77;;;14.60;89.30;;;;;;5112662;28;20207;-61
2022/10/12 01:57:53;;;;;;;17.60;10.47;;;14.50;89.10;;;;;;5109616;28;20288;-61
2022/10/12 02:00:19;;;;;;;15.57;9.83;;;14.50;89.10;;;;;;5094266;28;20193;-61
2022/10/12 02:03:13;;;;;;;14.10;10.73;;;14.50;89.20;;;;;;5092544;28;20203;-61
2022/10/12 02:05:54;;;;;;;16.10;10.40;;;14.40;89.30;;;;;;5110820;28;20233;-62
2022/10/12 02:08:50;;;;;;;11.90;9.53;;;14.40;89.30;;;;;;5103470;28;20197;-61
2022/10/12 02:11:18;;;;;;;12.83;10.27;;;14.40;89.20;;;;;;5096946;28;20213;-61
2022/10/12 02:13:52;;;;;;;14.80;10.47;;;14.40;89.20;;;;;;5095129;28;20204;-61
2022/10/12 02:16:21;;;;;;;11.10;9.73;;;14.30;89.20;;;;;;5111320;28;20191;-61
2022/10/12 02:18:50;;;;;;;15.23;10.47;;;14.30;89.20;;;;;;5107872;28;20189;-60
2022/10/12 02:21:22;;;;;;;17.73;10.80;;;14.30;89.30;;;;;;5109393;28;20306;-60
2022/10/12 02:23:51;;;;;;;11.97;10.07;;;14.20;89.40;;;;;;5110203;28;20200;-61
2022/10/12 02:26:18;;;;;;;23.63;10.23;;;14.30;89.40;;;;;;5097526;28;20252;-61
2022/10/12 02:28:47;;;;;;;13.83;10.73;;;14.30;89.50;;;;;;5112746;28;20197;-60
2022/10/12 02:31:27;;;;;;;18.87;10.73;;;14.20;89.70;;;;;;5113473;28;20207;-61
2022/10/12 02:34:09;;;;;;;16.77;10.33;;;14.20;89.80;;;;;;5111330;28;20292;-60
2022/10/12 02:36:50;;;;;;;16.17;10.70;;;14.20;89.80;;;;;;5118004;27;20185;-60
2022/10/12 02:39:30;;;;;;;13.30;10.43;;;14.20;89.70;;;;;;5113339;28;20239;-61
2022/10/12 02:42:02;;;;;;;15.53;9.70;;;14.20;89.40;;;;;;5107309;28;20195;-61
2022/10/12 02:44:32;;;;;;;13.50;11.07;;;14.20;89.50;;;;;;5102443;28;20200;-61
2022/10/12 02:46:59;;;;;;;14.50;10.63;;;14.20;89.40;;;;;;5108212;28;20185;-61
2022/10/12 02:49:27;;;;;;;13.80;10.60;;;14.20;89.40;;;;;;5094654;28;20192;-61
2022/10/12 02:51:54;;;;;;;15.20;11.60;;;14.20;89.30;;;;;;5099428;28;20261;-61
2022/10/12 02:54:20;;;;;;;14.77;11.27;;;14.10;89.40;;;;;;5092194;28;20298;-60
2022/10/12 02:56:46;;;;;;;16.17;11.50;;;14.20;89.50;;;;;;5090124;28;20208;-62
2022/10/12 02:59:13;;;;;;;16.07;10.37;;;14.10;89.60;;;;;;5078192;28;20188;-61
2022/10/12 03:01:40;;;;;;;13.30;10.97;;;14.20;89.60;;;;;;5096054;28;20189;-61
2022/10/12 03:04:06;;;;;;;15.17;10.57;;;14.20;89.40;;;;;;5096089;28;20227;-61
2022/10/12 03:06:32;;;;;;;16.83;12.47;;;14.10;89.30;;;;;;5103387;28;20220;-61
2022/10/12 03:08:57;;;;;;;13.20;9.73;;;14.10;89.40;;;;;;5112511;28;20219;-62
2022/10/12 03:11:23;;;;;;;15.53;11.37;;;14.10;89.30;;;;;;5094210;28;20241;-62
2022/10/12 03:13:55;;;;;;;14.93;11.00;;;14.00;89.30;;;;;;5110490;28;20208;-61
2022/10/12 03:16:21;;;;;;;15.73;11.00;;;14.00;89.50;;;;;;5108941;28;20283;-61
2022/10/12 03:18:47;;;;;;;19.03;11.63;;;14.00;89.40;;;;;;5096618;28;20215;-62
2022/10/12 03:21:13;;;;;;;16.67;11.00;;;14.00;89.40;;;;;;5088996;28;20212;-61
2022/10/12 03:23:39;;;;;;;16.30;11.17;;;13.90;89.60;;;;;;5094768;28;20203;-61
2022/10/12 03:26:05;;;;;;;20.30;11.27;;;13.90;89.90;;;;;;5095285;28;20188;-61
2022/10/12 03:28:31;;;;;;;16.83;11.57;;;13.90;89.80;;;;;;5107498;28;20216;-61
2022/10/12 03:30:58;;;;;;;18.10;10.90;;;13.90;89.70;;;;;;5113975;28;20287;-60
2022/10/12 03:33:23;;;;;;;13.70;10.83;;;13.90;89.60;;;;;;5111305;28;20210;-60
2022/10/12 03:35:49;;;;;;;16.87;10.87;;;14.00;89.80;;;;;;5099268;28;20180;-59
2022/10/12 03:38:16;;;;;;;11.80;10.00;;;14.00;89.60;;;;;;5094854;28;20236;-60
2022/10/12 03:40:42;;;;;;;14.70;9.90;;;14.00;89.50;;;;;;5109294;28;20326;-60
2022/10/12 03:43:08;;;;;;;15.57;9.83;;;14.00;89.60;;;;;;5097985;28;20276;-60
2022/10/12 03:45:34;;;;;;;17.03;11.47;;;14.00;89.70;;;;;;5112843;27;20190;-60
2022/10/12 03:48:00;;;;;;;15.10;9.90;;;14.00;89.50;;;;;;5110389;28;20276;-60
2022/10/12 03:50:26;;;;;;;16.90;11.60;;;13.90;89.30;;;;;;5090078;28;20189;-60
2022/10/12 03:52:52;;;;;;;13.87;10.23;;;13.80;89.60;;;;;;5111107;28;20239;-60
2022/10/12 03:55:18;;;;;;;13.67;10.23;;;13.80;89.60;;;;;;5092658;28;20192;-60
2022/10/12 03:57:44;;;;;;;16.53;11.10;;;13.80;89.60;;;;;;5097513;28;20188;-60
2022/10/12 04:00:12;;;;;;;16.13;9.60;;;13.90;89.80;;;;;;5098693;28;20229;-60
2022/10/12 04:02:38;;;;;;;14.77;10.60;;;13.90;89.70;;;;;;5113079;28;20181;-60
2022/10/12 04:05:04;;;;;;;15.57;10.23;;;13.90;89.50;;;;;;5113078;28;20182;-59
2022/10/12 04:07:30;;;;;;;12.30;10.00;;;13.90;89.50;;;;;;5103795;28;20184;-60
2022/10/12 04:09:56;;;;;;;14.63;11.33;;;13.90;89.50;;;;;;5090317;28;20279;-60
2022/10/12 04:12:21;;;;;;;18.90;10.43;;;13.80;89.00;;;;;;5091574;28;20190;-60
2022/10/12 04:14:47;;;;;;;12.67;10.10;;;13.80;89.40;;;;;;5097237;28;20195;-60
2022/10/12 04:17:15;;;;;;;14.37;10.63;;;13.80;89.40;;;;;;5102366;28;20214;-60
2022/10/12 04:19:41;;;;;;;18.87;10.23;;;13.80;89.50;;;;;;5098040;28;20237;-59
2022/10/12 04:22:07;;;;;;;15.17;10.73;;;13.80;89.30;;;;;;5096295;28;20193;-60
2022/10/12 04:24:32;;;;;;;12.07;8.93;;;13.80;89.40;;;;;;5097681;28;20234;-60
2022/10/12 04:26:58;;;;;;;14.07;9.97;;;13.80;89.20;;;;;;5098518;28;20200;-60
2022/10/12 04:29:24;;;;;;;17.23;10.83;;;13.80;89.10;;;;;;5110450;28;20242;-59
2022/10/12 04:31:49;;;;;;;13.23;10.07;;;13.80;89.10;;;;;;5113635;28;20237;-60
2022/10/12 04:34:15;;;;;;;19.70;10.80;;;13.70;89.10;;;;;;5105142;28;20209;-60
2022/10/12 04:36:41;;;;;;;14.63;9.77;;;13.70;89.20;;;;;;5088218;28;20181;-60
2022/10/12 04:39:07;;;;;;;14.30;9.60;;;13.70;89.60;;;;;;5095838;28;20233;-60
2022/10/12 04:41:33;;;;;;;19.50;10.00;;;13.70;89.30;;;;;;5117069;28;20180;-59
2022/10/12 04:43:58;;;;;;;15.00;10.27;;;13.70;89.30;;;;;;5112182;28;20193;-60
2022/10/12 04:46:24;;;;;;;17.53;9.00;;;13.70;89.10;;;;;;5095535;28;20188;-60
2022/10/12 04:48:50;;;;;;;16.17;9.70;;;13.70;89.00;;;;;;5089036;28;20189;-59
2022/10/12 04:51:16;;;;;;;11.80;9.00;;;13.60;89.00;;;;;;5099704;28;20242;-59
2022/10/12 04:53:41;;;;;;;13.87;9.77;;;13.60;89.10;;;;;;5072597;28;20213;-60
2022/10/12 04:56:07;;;;;;;14.07;10.63;;;13.60;89.00;;;;;;5089194;28;20215;-59
2022/10/12 04:58:33;;;;;;;13.20;9.90;;;13.60;88.90;;;;;;5115404;28;20183;-60
2022/10/12 05:00:59;;;;;;;11.30;9.30;;;13.50;89.00;;;;;;5112454;28;20189;-59
2022/10/12 05:03:25;;;;;;;15.00;8.97;;;13.40;89.10;;;;;;5097693;28;20196;-57
2022/10/12 05:05:51;;;;;;;15.97;10.03;;;13.40;89.10;;;;;;5097107;28;20188;-57
2022/10/12 05:08:17;;;;;;;13.67;10.67;;;13.40;89.10;;;;;;5114807;28;20188;-57
2022/10/12 05:10:43;;;;;;;12.17;10.57;;;13.40;89.00;;;;;;5097729;28;20189;-58
2022/10/12 05:13:09;;;;;;;13.33;10.37;;;13.40;89.00;;;;;;5115175;28;20212;-58
2022/10/12 05:15:34;;;;;;;15.37;11.03;;;13.50;89.00;;;;;;5113945;28;20278;-58
2022/10/12 05:18:00;;;;;;;14.10;10.40;;;13.50;88.90;;;;;;5116121;28;20184;-59
2022/10/12 05:20:25;;;;;;;17.33;10.63;;;13.50;88.80;;;;;;5086992;28;20188;-59
2022/10/12 05:22:51;;;;;;;16.53;10.97;;;13.50;89.00;;;;;;5093984;28;20194;-60
2022/10/12 05:25:18;;;;;;;11.47;10.27;;;13.50;88.90;;;;;;5110986;28;20192;-60
2022/10/12 05:27:44;;;;;;;13.63;10.57;;;13.50;88.90;;;;;;5099761;28;20188;-60
2022/10/12 05:30:10;;;;;;;20.70;11.13;;;13.50;88.80;;;;;;5078910;28;20199;-60
2022/10/12 05:32:36;;;;;;;15.90;10.80;;;13.50;88.90;;;;;;5093323;28;20216;-61
2022/10/12 05:35:02;;;;;;;15.93;10.83;;;13.50;89.00;;;;;;5110542;28;20224;-60
2022/10/12 05:37:27;;;;;;;18.53;11.27;;;13.60;88.90;;;;;;5091027;28;20215;-60
2022/10/12 05:39:53;;;;;;;16.43;11.60;;;13.50;88.80;;;;;;5110515;28;20235;-60
2022/10/12 05:42:19;;;;;;;15.87;10.50;;;13.60;88.90;;;;;;5111587;28;20197;-60
2022/10/12 05:44:44;;;;;;;16.93;11.40;;;13.60;88.90;;;;;;5078370;28;20234;-60
2022/10/12 05:47:10;;;;;;;21.17;12.03;;;13.40;89.20;;;;;;5111845;28;20197;-60
2022/10/12 05:49:37;;;;;;;17.07;11.23;;;13.40;89.60;;;;;;5091724;28;20205;-60
2022/10/12 05:52:02;;;;;;;12.70;10.93;;;13.50;89.40;;;;;;5077486;28;20242;-60
2022/10/12 05:54:28;;;;;;;24.83;11.83;;;13.60;89.40;;;;;;5091731;28;20212;-60
2022/10/12 05:56:54;;;;;;;20.03;11.43;;;13.60;89.30;;;;;;5085984;28;20199;-60
2022/10/12 05:59:19;;;;;;;19.27;11.27;;;13.70;89.30;;;;;;5092324;28;20217;-60
2022/10/12 06:01:45;;;;;;;14.37;10.80;;;13.80;89.30;;;;;;5096457;28;20299;-60
2022/10/12 06:04:11;;;;;;;17.90;12.03;;;13.80;89.30;;;;;;5094058;28;20247;-60
2022/10/12 06:06:37;;;;;;;13.13;11.03;;;13.80;89.10;;;;;;5094894;28;20200;-60
2022/10/12 06:09:03;;;;;;;16.00;11.70;;;13.80;89.50;;;;;;5083858;28;20201;-60
2022/10/12 06:11:29;;;;;;;13.90;10.73;;;13.80;89.40;;;;;;5089053;28;20201;-60
2022/10/12 06:13:54;;;;;;;14.87;11.87;;;13.80;89.40;;;;;;5091851;28;20216;-59
2022/10/12 06:16:20;;;;;;;15.53;10.70;;;13.90;89.20;;;;;;5090429;28;20296;-60
2022/10/12 06:18:46;;;;;;;21.73;10.20;;;14.00;89.10;;;;;;5092146;28;20193;-59
2022/10/12 06:21:12;;;;;;;15.10;10.03;;;14.00;89.00;;;;;;5073339;28;20200;-60
2022/10/12 06:23:37;;;;;;;17.17;10.40;;;14.00;88.90;;;;;;5091265;28;20259;-60
2022/10/12 06:26:03;;;;;;;14.63;11.30;;;14.10;88.80;;;;;;5086622;28;20245;-59
2022/10/12 06:28:29;;;;;;;16.00;10.83;;;14.10;88.80;;;;;;5080002;28;20205;-61
2022/10/12 06:30:57;;;;;;;13.33;10.03;;;14.20;88.70;;;;;;5095994;28;20225;-60
2022/10/12 06:33:24;;;;;;;13.40;11.53;;;14.20;88.80;;;;;;5103578;28;20209;-60
2022/10/12 06:35:50;;;;;;;12.83;10.87;;;14.30;88.70;;;;;;5093689;28;20223;-61
2022/10/12 06:38:16;;;;;;;15.47;10.97;;;14.30;88.60;;;;;;5094209;28;20274;-60
2022/10/12 06:40:42;;;;;;;16.77;12.17;;;14.30;88.50;;;;;;5101845;28;20315;-60
2022/10/12 06:43:07;;;;;;;18.50;11.87;;;14.30;88.50;;;;;;5107324;28;20190;-59
2022/10/12 06:45:33;;;;;;;13.93;11.13;;;14.30;88.60;;;;;;5098562;27;20659;-60
2022/10/12 06:47:59;;;;;;;19.70;12.17;;;14.40;88.40;;;;;;5091338;28;20201;-59
2022/10/12 06:50:25;;;;;;;14.20;11.70;;;14.40;88.10;;;;;;5112008;28;20203;-60
2022/10/12 06:52:51;;;;;;;13.83;10.73;;;14.40;88.20;;;;;;5090792;28;20295;-60
2022/10/12 06:55:17;;;;;;;14.70;10.63;;;14.50;88.20;;;;;;5101835;28;20215;-60
2022/10/12 06:57:43;;;;;;;16.53;12.97;;;14.50;88.20;;;;;;5088699;28;20186;-60
2022/10/12 07:00:09;;;;;;;19.67;13.37;;;14.60;88.00;;;;;;5094262;28;20188;-60
2022/10/12 07:02:35;;;;;;;21.33;13.97;;;14.60;87.90;;;;;;5113739;28;20181;-60
2022/10/12 07:05:01;;;;;;;16.20;12.83;;;14.70;87.90;;;;;;5107513;28;20185;-60
2022/10/12 07:07:35;;;;;;;21.00;12.47;;;14.70;87.80;;;;;;5093545;28;20185;-60
2022/10/12 07:10:03;;;;;;;18.83;12.33;;;14.80;87.50;;;;;;5098868;28;20206;-60
2022/10/12 07:12:29;;;;;;;16.57;12.90;;;14.80;87.50;;;;;;5111560;28;20271;-60
2022/10/12 07:14:54;;;;;;;18.37;12.23;;;14.80;87.30;;;;;;5107455;28;20293;-60
2022/10/12 07:17:21;;;;;;;21.13;13.23;;;14.90;87.40;;;;;;5094234;28;20234;-60
2022/10/12 07:19:46;;;;;;;18.00;12.47;;;14.90;87.30;;;;;;5111495;28;20172;-60
2022/10/12 07:22:12;;;;;;;19.33;13.80;;;15.00;87.00;;;;;;5116438;28;20233;-60
2022/10/12 07:24:38;;;;;;;18.10;13.23;;;15.00;86.80;;;;;;5107939;28;20207;-60
2022/10/12 07:27:07;;;;;;;18.67;12.63;;;15.00;87.10;;;;;;5113170;27;20192;-59
2022/10/12 07:29:33;;;;;;;16.43;12.60;;;15.10;86.40;;;;;;5114467;28;20193;-60
2022/10/12 07:31:59;;;;;;;17.33;12.87;;;15.10;86.60;;;;;;5098291;28;20204;-59
2022/10/12 07:34:26;;;;;;;15.13;11.87;;;15.10;86.40;;;;;;5115701;28;20209;-59
2022/10/12 07:36:52;;;;;;;18.60;11.87;;;15.10;86.00;;;;;;5106184;28;20183;-60
2022/10/12 07:39:18;;;;;;;16.13;12.23;;;15.10;86.20;;;;;;5113435;28;20232;-59
2022/10/12 07:41:44;;;;;;;15.17;11.67;;;15.20;86.00;;;;;;5111625;28;20184;-59
2022/10/12 07:44:10;;;;;;;14.70;10.53;;;15.30;86.00;;;;;;5090291;28;20188;-59
2022/10/12 07:46:36;;;;;;;17.97;12.10;;;15.30;85.50;;;;;;5097106;28;20271;-59
2022/10/12 07:49:02;;;;;;;17.23;11.90;;;15.30;86.00;;;;;;5114589;28;20353;-59
2022/10/12 07:51:29;;;;;;;16.50;11.93;;;15.30;85.20;;;;;;5094095;28;20196;-59
2022/10/12 07:53:54;;;;;;;13.63;12.17;;;15.30;84.80;;;;;;5108520;28;20212;-59
2022/10/12 07:56:20;;;;;;;18.00;11.57;;;15.50;84.50;;;;;;5116118;28;20314;-60
2022/10/12 07:58:54;;;;;;;15.80;12.83;;;15.50;84.80;;;;;;5114090;28;20192;-60
2022/10/12 08:01:22;;;;;;;16.00;12.77;;;15.60;85.10;;;;;;5108521;28;20213;-59
2022/10/12 08:03:48;;;;;;;17.97;13.20;;;15.50;82.10;;;;;;5107306;28;20314;-59
2022/10/12 08:06:17;;;;;;;19.67;14.17;;;15.40;82.80;;;;;;5101112;28;20188;-59
2022/10/12 08:08:43;;;;;;;12.70;10.47;;;15.40;83.20;;;;;;5104627;28;20258;-59
2022/10/12 08:11:10;;;;;;;13.43;11.33;;;15.60;83.20;;;;;;5101200;28;20215;-59
2022/10/12 08:13:36;;;;;;;16.87;12.33;;;15.70;83.50;;;;;;5110010;28;20204;-59
2022/10/12 08:16:04;;;;;;;16.87;12.53;;;15.60;81.00;;;;;;5094510;28;20192;-59
2022/10/12 08:18:30;;;;;;;14.00;11.40;;;15.70;82.20;;;;;;5116149;28;20180;-59
2022/10/12 08:20:56;;;;;;;18.00;11.50;;;15.70;82.20;;;;;;5093948;28;20191;-59
2022/10/12 08:23:21;;;;;;;13.53;11.07;;;15.80;82.10;;;;;;5107183;28;20215;-59
2022/10/12 08:25:55;;;;;;;14.07;11.53;;;15.80;81.40;;;;;;5097616;28;20228;-60
2022/10/12 08:28:21;;;;;;;18.43;12.87;;;16.00;81.50;;;;;;5097935;28;20200;-59
2022/10/12 08:30:47;;;;;;;14.40;10.77;;;16.00;80.40;;;;;;5111253;28;20200;-59
2022/10/12 08:33:13;;;;;;;16.63;11.40;;;16.10;81.00;;;;;;5090406;28;20215;-60
2022/10/12 08:35:39;;;;;;;17.27;12.43;;;16.30;81.20;;;;;;5095209;28;20192;-60
2022/10/12 08:38:06;;;;;;;21.30;13.77;;;16.40;81.80;;;;;;5086473;28;20286;-60
2022/10/12 08:40:40;;;;;;;17.17;13.13;;;16.40;80.10;;;;;;5088792;28;20235;-59
2022/10/12 08:43:30;;;;;;;17.03;12.00;;;16.20;80.50;;;;;;5099104;28;20188;-59
2022/10/12 08:45:59;;;;;;;18.57;13.03;;;16.30;80.40;;;;;;5110068;28;20188;-60
2022/10/12 08:48:40;;;;;;;15.27;12.50;;;16.40;80.30;;;;;;5102123;28;20293;-59
2022/10/12 08:51:11;;;;;;;15.60;12.43;;;16.50;80.10;;;;;;5099103;28;20230;-59
2022/10/12 08:53:43;;;;;;;20.03;13.53;;;16.50;79.90;;;;;;5105581;28;20209;-59
2022/10/12 08:56:08;;;;;;;19.47;13.17;;;16.40;79.20;;;;;;5104919;28;20216;-59
2022/10/12 08:58:37;;;;;;;16.30;13.37;;;16.30;80.40;;;;;;5093881;28;20254;-60
2022/10/12 09:01:18;;;;;;;18.20;13.07;;;16.20;77.80;;;;;;5100583;28;20189;-59
2022/10/12 09:04:07;;;;;;;16.70;13.20;;;16.20;79.90;;;;;;5114825;28;20188;-59
2022/10/12 09:06:38;;;;;;;21.77;14.37;;;16.20;81.00;;;;;;5108590;28;20192;-59
2022/10/12 09:09:23;;;;;;;20.83;13.77;;;16.00;78.10;;;;;;5103310;28;20196;-59
2022/10/12 09:12:12;;;;;;;19.13;13.00;;;16.00;79.60;;;;;;5112366;28;20192;-59
2022/10/12 09:14:40;;;;;;;24.87;14.40;;;16.00;78.70;;;;;;5103792;28;20239;-59
2022/10/12 09:17:18;;;;;;;20.07;14.90;;;16.10;79.10;;;;;;5112257;28;20191;-59
2022/10/12 09:19:43;;;;;;;20.67;14.00;;;16.00;78.90;;;;;;5109264;28;20204;-60
2022/10/12 09:22:18;;;;;;;20.20;12.87;;;16.00;79.20;;;;;;5087469;28;20424;-59
2022/10/12 09:24:47;;;;;;;14.13;10.93;;;16.20;79.40;;;;;;5108288;28;20226;-60
2022/10/12 09:27:16;;;;;;;17.87;12.23;;;16.30;79.00;;;;;;5097357;28;20192;-59
2022/10/12 09:29:48;;;;;;;17.97;12.70;;;16.30;77.10;;;;;;5113422;28;20189;-59
2022/10/12 09:32:35;;;;;;;13.50;10.53;;;16.30;76.10;;;;;;5108793;28;20433;-60
2022/10/12 09:35:03;;;;;;;18.13;11.60;;;16.40;77.40;;;;;;5110048;28;20188;-59
2022/10/12 09:37:31;;;;;;;12.70;10.63;;;16.50;77.10;;;;;;5099605;28;20280;-60
2022/10/12 09:39:57;;;;;;;17.00;10.97;;;16.50;75.00;;;;;;5111040;28;20291;-59
2022/10/12 09:42:23;;;;;;;13.23;10.10;;;16.70;76.20;;;;;;5094234;28;20190;-59
2022/10/12 09:44:55;;;;;;;17.43;11.43;;;16.70;76.50;;;;;;5112462;28;20180;-59
2022/10/12 09:47:26;;;;;;;13.07;11.07;;;16.60;73.20;;;;;;5112269;28;20189;-59
2022/10/12 09:49:57;;;;;;;13.93;10.43;;;16.70;74.60;;;;;;5105475;28;20189;-59
2022/10/12 09:52:43;;;;;;;13.80;11.00;;;16.90;75.40;;;;;;5093137;28;20279;-59
2022/10/12 09:55:13;;;;;;;17.63;11.37;;;17.00;75.00;;;;;;5112213;28;20267;-59
2022/10/12 09:57:42;;;;;;;13.23;11.33;;;17.00;75.30;;;;;;5103996;28;20187;-60
2022/10/12 10:00:27;;;;;;;14.90;12.10;;;17.20;74.80;;;;;;5101028;28;20189;-59
2022/10/12 10:02:54;;;;;;;12.50;9.30;;;17.30;74.20;;;;;;5105513;28;20226;-59
2022/10/12 10:05:30;;;;;;;13.13;9.97;;;17.40;74.70;;;;;;5101047;28;20230;-59
2022/10/12 10:08:13;;;;;;;12.60;11.00;;;17.60;75.00;;;;;;5110794;28;20180;-59
2022/10/12 10:10:54;;;;;;;17.80;12.40;;;17.80;75.40;;;;;;5096300;28;20195;-60
2022/10/12 10:13:21;;;;;;;14.03;10.83;;;17.80;74.10;;;;;;5103596;28;20312;-59
2022/10/12 10:15:50;;;;;;;19.17;12.87;;;17.80;73.30;;;;;;5096443;28;20181;-59
2022/10/12 10:18:35;;;;;;;18.63;12.63;;;17.50;70.50;;;;;;5112865;28;20183;-60
2022/10/12 10:21:03;;;;;;;17.40;12.33;;;17.30;72.50;;;;;;5112748;28;20192;-59
2022/10/12 10:23:38;;;;;;;17.37;11.43;;;17.30;71.20;;;;;;5108885;28;20185;-60
2022/10/12 10:26:07;;;;;;;14.20;11.53;;;17.50;71.80;;;;;;5104769;28;20192;-60
2022/10/12 10:28:36;;;;;;;14.63;11.43;;;17.50;72.10;;;;;;5108097;28;20271;-60
2022/10/12 10:31:05;;;;;;;13.03;11.13;;;17.60;72.40;;;;;;5109170;28;20180;-60
2022/10/12 10:33:33;;;;;;;12.00;10.17;;;17.70;72.60;;;;;;5106252;28;20216;-59
2022/10/12 10:36:01;;;;;;;14.90;10.97;;;17.80;71.70;;;;;;5104327;28;20196;-61
2022/10/12 10:38:32;;;;;;;14.90;9.83;;;17.90;69.50;;;;;;5093951;28;20206;-60
2022/10/12 10:41:00;;;;;;;13.50;9.97;;;18.00;71.80;;;;;;5085863;28;20185;-60
2022/10/12 10:43:31;;;;;;;18.03;10.43;;;18.20;71.40;;;;;;5073953;28;20552;-59
2022/10/12 10:46:03;;;;;;;11.20;9.90;;;18.40;70.50;;;;;;5057168;28;20193;-60
2022/10/12 10:48:31;;;;;;;12.27;9.30;;;18.50;69.30;;;;;;5086240;28;20190;-59
2022/10/12 10:51:00;;;;;;;16.77;9.90;;;18.60;69.10;;;;;;5072889;28;20280;-60
2022/10/12 10:53:31;;;;;;;15.03;9.77;;;18.60;70.00;;;;;;5074865;28;20209;-60
2022/10/12 10:56:25;;;;;;;10.47;7.50;;;18.60;67.80;;;;;;5062434;28;20177;-60
2022/10/12 10:58:56;;;;;;;19.37;9.23;;;18.80;68.20;;;;;;5087303;28;20173;-60
2022/10/12 11:01:48;;;;;;;13.37;8.10;;;18.80;66.30;;;;;;5090981;28;20189;-61
2022/10/12 11:04:19;;;;;;;11.57;8.57;;;18.90;67.50;;;;;;5039903;28;20193;-61
2022/10/12 11:06:52;;;;;;;11.70;8.60;;;18.90;66.90;;;;;;5072741;28;20223;-59
2022/10/12 11:09:35;;;;;;;14.07;8.27;;;19.10;68.00;;;;;;5071547;28;20267;-60
2022/10/12 11:12:13;;;;;;;9.87;7.97;;;19.20;67.30;;;;;;5071260;28;20185;-60
2022/10/12 11:14:49;;;;;;;10.00;7.73;;;19.20;67.20;;;;;;5068446;28;20219;-59
2022/10/12 11:17:32;;;;;;;9.67;8.00;;;19.10;65.20;;;;;;5070577;28;20177;-60
2022/10/12 11:19:57;;;;;;;11.00;8.10;;;18.90;64.60;;;;;;5069705;28;20192;-59
2022/10/12 11:22:39;;;;;;;13.43;7.97;;;18.90;66.40;;;;;;5064717;28;20253;-59
2022/10/12 11:25:25;;;;;;;10.83;7.77;;;19.00;66.10;;;;;;5071497;28;20222;-61
2022/10/12 11:27:51;;;;;;;11.77;8.50;;;18.80;65.90;;;;;;5072834;28;20220;-61
2022/10/12 11:30:23;;;;;;;13.33;8.30;;;18.90;65.90;;;;;;5057339;28;20239;-60
2022/10/12 11:33:00;;;;;;;13.50;7.63;;;18.90;64.70;;;;;;5076309;28;20188;-61
2022/10/12 11:35:36;;;;;;;8.83;7.40;;;18.80;66.00;;;;;;5065655;28;20185;-60
2022/10/12 11:38:07;;;;;;;13.33;7.63;;;18.90;65.00;;;;;;5059522;28;20189;-59
2022/10/12 11:40:49;;;;;;;8.13;6.43;;;19.10;65.60;;;;;;5096133;28;20228;-59
2022/10/12 11:43:38;;;;;;;11.97;7.87;;;19.30;66.40;;;;;;5089022;28;20277;-60
2022/10/12 11:46:07;;;;;;;14.13;8.43;;;19.10;61.90;;;;;;5099144;28;20199;-60
2022/10/12 11:49:13;;;;;;;9.10;7.40;;;19.00;64.10;;;;;;5107335;28;20184;-61
2022/10/12 11:51:39;;;;;;;11.57;7.63;;;19.00;64.10;;;;;;5097961;28;20192;-61
2022/10/12 11:54:27;;;;;;;10.00;7.17;;;19.30;64.70;;;;;;5092787;28;20204;-61
2022/10/12 11:56:56;;;;;;;8.53;7.10;;;19.40;64.20;;;;;;5115098;28;20180;-60
2022/10/12 11:59:34;;;;;;;9.07;6.00;;;19.40;64.20;;;;;;5106870;28;20184;-60
2022/10/12 12:02:13;;;;;;;8.27;7.33;;;19.00;61.90;;;;;;5098532;28;20210;-60
2022/10/12 12:04:44;;;;;;;11.50;6.70;;;18.80;64.10;;;;;;5114238;28;20215;-60
2022/10/12 12:07:21;;;;;;;7.07;6.37;;;18.90;65.00;;;;;;5114013;28;20202;-60
2022/10/12 12:09:48;;;;;;;9.90;6.97;;;19.00;65.90;;;;;;5115956;28;20176;-60
2022/10/12 12:12:28;;;;;;;7.33;6.63;;;18.90;65.10;;;;;;5094923;28;20192;-60
2022/10/12 12:14:53;;;;;;;11.53;6.73;;;18.90;65.40;;;;;;5114076;28;20230;-60
2022/10/12 12:17:19;;;;;;;7.60;6.30;;;18.90;66.20;;;;;;5115270;28;20238;-60
2022/10/12 12:19:56;;;;;;;9.83;6.93;;;19.00;67.00;;;;;;5112355;28;20183;-60
2022/10/12 12:22:29;;;;;;;8.10;6.50;;;19.20;66.80;;;;;;5099903;28;20252;-60
2022/10/12 12:25:07;;;;;;;8.10;6.60;;;19.10;65.70;;;;;;5108783;28;20188;-60
2022/10/12 12:27:36;;;;;;;11.57;6.53;;;19.10;64.60;;;;;;5116708;28;20184;-60
2022/10/12 12:30:18;;;;;;;8.47;5.77;;;19.10;65.20;;;;;;5113331;28;20247;-60
2022/10/12 12:32:44;;;;;;;7.53;6.20;;;18.80;63.60;;;;;;5106166;28;20204;-59
2022/10/12 12:35:33;;;;;;;8.40;6.63;;;18.80;64.30;;;;;;5112115;28;20176;-59
2022/10/12 12:38:07;;;;;;;11.23;6.70;;;18.90;62.90;;;;;;5101970;27;20191;-59
2022/10/12 12:40:33;;;;;;;9.40;5.57;;;19.00;61.60;;;;;;5115298;28;20376;-60
2022/10/12 12:43:18;;;;;;;8.87;6.40;;;19.20;63.60;;;;;;5098571;28;20195;-60
2022/10/12 12:46:10;;;;;;;7.77;5.47;;;19.40;64.70;;;;;;5109071;28;20237;-59